^^

Flughafenwetter in der weiteren Umgebung

 

EDVE - Braunschweig, Germany
Entfernung von Station: N 5 km
Aktualisierung: 19.09.2018 18:50
Klar
Klar
 Wind von W
Wind: W 11 km/h
Temperatur: 27°C
Hitze Index: 27°C
Taupunkt: 13°C
Luftfeuchte: 42%
Luftdruck: 1015 hPa
Zusammenfassung: Klar
Sicht: mehr als 10 km
2018/09/19 16:50 EDVE 191650Z 26006KT CAVOK 27/13 Q1015
ETHC - Celle (ger-Army), Germany
Entfernung von Station: NW 51 km
Aktualisierung: 19.09.2018 18:20
stark bewölkt
stark bewölkt
 Wind von SW
Wind: SW 20 km/h
Temperatur: 27°C
Taupunkt: 12°C
Luftfeuchte: 39%
Luftdruck: 1015 hPa
Wolken: stark bewölkt
Sicht: 10 km
Wolken Details: leicht bewölkt 1829 m
stark bewölkt 11278 m
2018/09/19 16:20 ETHC 191620Z 22011KT 9999 FEW060 BKN370 27/12 Q1015 BLU+FCST CANCEL
 
EDDV - Hannover, Germany
Entfernung von Station: WNW 62 km
Aktualisierung: 19.09.2018 18:50
Klar
Klar
 Wind von SW
Wind: SW 17 km/h
Temperatur: 27°C
Hitze Index: 27°C
Taupunkt: 13°C
Luftfeuchte: 42%
Luftdruck: 1015 hPa
Zusammenfassung: Klar
Sicht: mehr als 10 km
2018/09/19 16:50 EDDV 191650Z 22009KT 190V280 CAVOK 27/13 Q1015 NOSIG
ETHS - Fassberg (ger-Af, Germany
Entfernung von Station: NNW 75 km
Aktualisierung: 19.09.2018 18:20
leicht bewölkt
leicht bewölkt
 Wind von WSW
Wind: WSW 22 km/h
Temperatur: 26°C
Taupunkt: 12°C
Luftfeuchte: 42%
Luftdruck: 1015 hPa
Wolken: leicht bewölkt
Sicht: 10 km
Wolken Details: leicht bewölkt 1829 m
leicht bewölkt 10668 m
2018/09/19 16:20 ETHS 191620Z 25012KT 9999 FEW060 SCT350 26/12 Q1015 BLU+BLU+
 
EDBC - Cochstedt Arpt, Germany
Entfernung von Station: SO 76 km
Aktualisierung: 24.07.2017 17:20
nicht aktuell
leichter Regen, stark bewölkt
leichter Regen, stark bewölkt
 Wind von N
Wind: N 11 km/h
Temperatur: 16°C
Taupunkt: 16°C
Luftfeuchte: 100%
Luftdruck: 1007 hPa
Zusammenfassung: Nieselregen
Wolken: stark bewölkt
Sicht: 10 km
Wolken Details: leicht bewölkt 914 m
stark bewölkt 1981 m
2017/07/24 15:20 EDBC 241520Z 35006KT 9999 -RA SCT030 BKN065 16/16 Q1007
ETNW - Wunstorf (ger-Af, Germany
Entfernung von Station: WNW 79 km
Aktualisierung: 19.09.2018 18:20
leicht bewölkt
leicht bewölkt
 Wind von SW
Wind: SW 24 km/h
Temperatur: 28°C
Hitze Index: 27°C
Taupunkt: 13°C
Luftfeuchte: 40%
Luftdruck: 1015 hPa
Wolken: leicht bewölkt
Sicht: 10 km
Wolken Details: leicht bewölkt 1829 m
leicht bewölkt 10363 m
2018/09/19 16:20 ETNW 191620Z 23013KT 9999 FEW060 SCT340 28/13 Q1015 BLU+
 
ETHB - Buckeburg(Ger-Ar, Germany
Entfernung von Station: W 101 km
Aktualisierung: 19.09.2018 18:20
leicht bewölkt
leicht bewölkt
 Wind von WSW
Wind: WSW 26 km/h
Temperatur: 27°C
Hitze Index: 27°C
Taupunkt: 13°C
Luftfeuchte: 42%
Luftdruck: 1015 hPa
Wolken: leicht bewölkt
Sicht: 10 km
Wolken Details: leicht bewölkt 1524 m
leicht bewölkt 9144 m
2018/09/19 16:20 ETHB 191620Z 25014KT 9999 FEW050 SCT300 27/13 Q1015 BLU+BLU+
ETGQ - Rotenburg, Germany
Entfernung von Station: NW 125 km
Aktualisierung: 10.10.2016 06:20
nicht aktuell

 Wind von veränderlich
Wind: veränderlich 0 km/h
Temperatur: 4°C
Taupunkt: 3°C
Luftfeuchte: 93%
Luftdruck: 1025 hPa
2016/10/10 04:20 ETGQ 100420Z AUTO /////KT //// // ////// 04/03 Q1025 ///
 
EDVK - Kassel/Calden, Germany
Entfernung von Station: SW 128 km
Aktualisierung: 19.09.2018 18:50
Klar
Klar
 Wind von SW
Wind: SW 15 km/h
Temperatur: 26°C
Taupunkt: 13°C
Luftfeuchte: 45%
Luftdruck: 1017 hPa
Zusammenfassung: Klar
Sicht: mehr als 10 km
2018/09/19 16:50 EDVK 191650Z 22008KT CAVOK 26/13 Q1017
EDDW - Bremen, Germany
Entfernung von Station: NW 145 km
Aktualisierung: 19.09.2018 18:50
Klar
Klar
 Wind von WSW
Wind: WSW 24 km/h
Temperatur: 25°C
Taupunkt: 13°C
Luftfeuchte: 47%
Luftdruck: 1014 hPa
Zusammenfassung: Klar
Sicht: mehr als 10 km
2018/09/19 16:50 EDDW 191650Z 25013KT CAVOK 25/13 Q1014 TEMPO 24015G25KT
 
EDDE - Erfurt, Germany
Entfernung von Station: SSO 148 km
Aktualisierung: 19.09.2018 18:50
Klar
Klar
 Wind von SSW
Wind: SSW 17 km/h
Temperatur: 26°C
Taupunkt: 11°C
Luftfeuchte: 39%
Luftdruck: 1018 hPa
Zusammenfassung: Klar
Sicht: mehr als 10 km
2018/09/19 16:50 EDDE 191650Z 21009KT CAVOK 26/11 Q1018 NOSIG
EDLP - Paderborn, Germany
Entfernung von Station: WSW 135 km
Aktualisierung: 19.09.2018 18:50
Klar
Klar
 Wind von SW
Wind: SW 20 km/h
Temperatur: 26°C
Taupunkt: 12°C
Luftfeuchte: 42%
Luftdruck: 1017 hPa
Zusammenfassung: Klar
Sicht: mehr als 10 km
2018/09/19 16:50 EDLP 191650Z 22011KT CAVOK 26/12 Q1017
 
EDHI - Hamburg/Finkenwe, Germany
Entfernung von Station: NNW 148 km
Aktualisierung: 19.09.2018 18:20
Klar
Klar
 Wind von SW
Wind: SW 19 km/h
Temperatur: 26°C
Taupunkt: 13°C
Luftfeuchte: 45%
Luftdruck: 1013 hPa
Zusammenfassung: Klar
Sicht: mehr als 10 km
2018/09/19 16:20 EDHI 191620Z 22010KT CAVOK 26/13 Q1013
EDDP - Leipzig/Schkeudi, Germany
Entfernung von Station: SO 149 km
Aktualisierung: 19.09.2018 18:50
Klar
Klar
 Wind von SW
Wind: SW 19 km/h
Temperatur: 27°C
Taupunkt: 10°C
Luftfeuchte: 34%
Luftdruck: 1017 hPa
Zusammenfassung: Klar
Sicht: mehr als 10 km
2018/09/19 16:50 EDDP 191650Z 22010KT CAVOK 27/10 Q1017 NOSIG
 
EDDP - Leipzig/Halle, Germany
Entfernung von Station: SO 149 km
Aktualisierung: 19.09.2018 18:50
Klar
Klar
 Wind von SW
Wind: SW 19 km/h
Temperatur: 27°C
Taupunkt: 10°C
Luftfeuchte: 34%
Luftdruck: 1017 hPa
Zusammenfassung: Klar
Sicht: mehr als 10 km
2018/09/19 16:50 EDDP 191650Z 22010KT CAVOK 27/10 Q1017 NOSIG
EDOP - Schwerin-Parchim, Germany
Entfernung von Station: NNO 153 km
Aktualisierung: 07.09.2018 16:50
nicht aktuell
leicht bewölkt
leicht bewölkt
 Wind von SSW
Wind: SSW 15 km/h
Temperatur: 21°C
Taupunkt: 11°C
Luftfeuchte: 53%
Luftdruck: 1010 hPa
Wolken: leicht bewölkt
Sicht: 10 km
Wolken Details: leicht bewölkt 1341 m
2018/09/07 14:50 EDOP 071450Z 21008KT 9999 SCT044 21/11 Q1010
 
ETND - Diepholz (ger-Af, Germany
Entfernung von Station: WNW 153 km
Aktualisierung: 19.09.2018 15:20
nicht aktuell
leicht bewölkt
leicht bewölkt
 Wind von SW
Wind: SW 26 km/h
Temperatur: 27°C
Hitze Index: 27°C
Taupunkt: 14°C
Luftfeuchte: 45%
Luftdruck: 1015 hPa
Wolken: leicht bewölkt
Sicht: 10 km
Wolken Details: leicht bewölkt 1524 m
leicht bewölkt 9144 m
2018/09/19 13:20 ETND 191320Z 23014KT 9999 SCT050 SCT300 27/14 Q1015 BLU+
EDDH - Hamburg, Germany
Entfernung von Station: NNW 154 km
Aktualisierung: 19.09.2018 18:50
Klar
Klar
 Wind von SW
Wind: SW 17 km/h
Temperatur: 25°C
Taupunkt: 13°C
Luftfeuchte: 47%
Luftdruck: 1013 hPa
Zusammenfassung: Klar
Sicht: mehr als 10 km
2018/09/19 16:50 EDDH 191650Z 23009KT CAVOK 25/13 Q1013 NOSIG
 
ETHF - Fritzlar (ger-Ar, Germany
Entfernung von Station: SW 156 km
Aktualisierung: 19.09.2018 18:20
stark bewölkt
stark bewölkt
 Wind von SSW
Wind: SSW 22 km/h
Temperatur: 28°C
Hitze Index: 27°C
Taupunkt: 13°C
Luftfeuchte: 40%
Luftdruck: 1016 hPa
Wolken: stark bewölkt
Sicht: 10 km
Wolken Details: leicht bewölkt 1829 m
stark bewölkt 10973 m
2018/09/19 16:20 ETHF 191620Z 20012KT 9999 FEW060 BKN360 28/13 Q1016 BLU+BLU+
EDHL - Luebeck, Germany
Entfernung von Station: N 178 km
Aktualisierung: 19.09.2018 18:50
Klar
Klar
 Wind von S
Wind: S 15 km/h
Temperatur: 25°C
Taupunkt: 13°C
Luftfeuchte: 47%
Luftdruck: 1014 hPa
Zusammenfassung: Klar
Sicht: mehr als 10 km
2018/09/19 16:50 EDHL 191650Z 19008KT CAVOK 25/13 Q1014
 
ETSH - Holzdorf, Germany
Entfernung von Station: OSO 188 km
Aktualisierung: 19.09.2018 18:20
leicht bewölkt
leicht bewölkt
 Wind von SW
Wind: SW 15 km/h
Temperatur: 29°C
Taupunkt: 11°C
Luftfeuchte: 33%
Luftdruck: 1016 hPa
Wolken: leicht bewölkt
Sicht: 10 km
Wolken Details: leicht bewölkt 2134 m
2018/09/19 16:20 ETSH 191620Z 22008KT 9999 FEW070 29/11 Q1016 BLU+
EDDT - Berlin-Tegel, Germany
Entfernung von Station: ONO 190 km
Aktualisierung: 19.09.2018 18:50
Klar
Klar
 Wind von S
Wind: S 9 km/h
Temperatur: 28°C
Taupunkt: 11°C
Luftfeuchte: 35%
Luftdruck: 1016 hPa
Zusammenfassung: Klar
Sicht: mehr als 10 km
2018/09/19 16:50 EDDT 191650Z 19005KT CAVOK 28/11 Q1016 NOSIG
 
ETNL - Rostock-Laage, Germany
Entfernung von Station: NO 217 km
Aktualisierung: 19.09.2018 18:20
leicht bewölkt
leicht bewölkt
 Wind von SSW
Wind: SSW 9 km/h
Temperatur: 26°C
Taupunkt: 13°C
Luftfeuchte: 45%
Luftdruck: 1014 hPa
Wolken: leicht bewölkt
Sicht: 10 km
Wolken Details: leicht bewölkt 11582 m
2018/09/19 16:20 ETNL 191620Z 21005KT 9999 SCT380 26/13 Q1014 BLU+BLU+
EDLW - Dortmund, Germany
Entfernung von Station: WSW 217 km
Aktualisierung: 19.09.2018 18:50
Klar
Klar
 Wind von SW
Wind: SW 22 km/h
Temperatur: 26°C
Taupunkt: 13°C
Luftfeuchte: 45%
Luftdruck: 1016 hPa
Zusammenfassung: Klar
Sicht: mehr als 10 km
2018/09/19 16:50 EDLW 191650Z 23012KT CAVOK 26/13 Q1016
 
EDDK - Koeln/Bonn, Germany
Entfernung von Station: WSW 282 km
Aktualisierung: 19.09.2018 18:50
Klar
Klar
 Wind von SW
Wind: SW 19 km/h
Temperatur: 27°C
Hitze Index: 27°C
Taupunkt: 13°C
Luftfeuchte: 42%
Luftdruck: 1016 hPa
Zusammenfassung: Klar
Sicht: mehr als 10 km
2018/09/19 16:50 EDDK 191650Z 23010KT CAVOK 27/13 Q1016 NOSIG
EDDL - Düsseldorf, Germany
Entfernung von Station: WSW 282 km
Aktualisierung: 19.09.2018 18:50
Klar
Klar
 Wind von WSW
Wind: WSW 26 km/h
Temperatur: 26°C
Taupunkt: 13°C
Luftfeuchte: 45%
Luftdruck: 1016 hPa
Zusammenfassung: Klar
Sicht: mehr als 10 km
2018/09/19 16:50 EDDL 191650Z 25014KT CAVOK 26/13 Q1016 BECMG 24006KT
 
EDDF - Frankfurt Main, Germany
Entfernung von Station: SSW 285 km
Aktualisierung: 19.09.2018 18:50
Klar
Klar
 Wind von SSW
Wind: SSW 17 km/h
Temperatur: 28°C
Hitze Index: 27°C
Taupunkt: 13°C
Luftfeuchte: 40%
Luftdruck: 1017 hPa
Zusammenfassung: Klar
Sicht: mehr als 10 km
2018/09/19 16:50 EDDF 191650Z 21009KT CAVOK 28/13 Q1017 NOSIG
EDDS - Stuttgart, Germany
Entfernung von Station: SSW 413 km
Aktualisierung: 19.09.2018 18:50
Klar
Klar
 Wind von veränderlich
Wind: veränderlich 4 km/h
Temperatur: 27°C
Taupunkt: 12°C
Luftfeuchte: 39%
Luftdruck: 1020 hPa
Zusammenfassung: Klar
Sicht: mehr als 10 km
2018/09/19 16:50 EDDS 191650Z VRB02KT CAVOK 27/12 Q1020 NOSIG
 
EDDR - Saarbrücken, Germany
Entfernung von Station: SW 418 km
Aktualisierung: 19.09.2018 18:50
Klar
Klar
 Wind von WSW
Wind: WSW 13 km/h
Temperatur: 26°C
Taupunkt: 13°C
Luftfeuchte: 45%
Luftdruck: 1019 hPa
Zusammenfassung: Klar
Sicht: mehr als 10 km
2018/09/19 16:50 EDDR 191650Z 25007KT CAVOK 26/13 Q1019 NOSIG
EDDM - München, Germany
Entfernung von Station: SSO 445 km
Aktualisierung: 19.09.2018 18:50
Klar
Klar
 Wind von N
Wind: N 2 km/h
Temperatur: 24°C
Taupunkt: 12°C
Luftfeuchte: 47%
Luftdruck: 1022 hPa
Zusammenfassung: Klar
Sicht: mehr als 10 km
2018/09/19 16:50 EDDM 191650Z 35001KT CAVOK 24/12 Q1022 NOSIG
 
LOWI - Innsbruck, Austria
Entfernung von Station: WSW 566 km
Aktualisierung: 19.09.2018 18:50
leicht bewölkt
leicht bewölkt
 Wind von O
Wind: O 6 km/h
Temperatur: 23°C
Taupunkt: 15°C
Luftfeuchte: 61%
Luftdruck: 1022 hPa
Wolken: leicht bewölkt
Sicht: 10 km
Wolken Details: leicht bewölkt 2134 m
2018/09/19 16:50 LOWI 191650Z 08003KT 030V190 9999 FEW070 23/15 Q1022 NOSIG
Besucherstatistik
Besucher gesamt: 1.176.269
Besucher heute: 765
Besucher gestern: 941
gerade online: 8
aufrufe diese Seite: 5.353
counter Statistiken